LOWK

Klagenfurt Airport

Klagenfurt am Wörthersee, Austria
TAF AMD LOWK 180957Z 1809/1906 VRB02KT 9999 SCT007 BKN010 TX17/1814Z TN09/1904Z BECMG 1810/1811 FEW050 SCT080 TEMPO 1821/1906 1200 BCFG TEMPO 1822/1906 0500 BCFG BKN003
Issued Valid From Valid To
Oct-18 @ 09:57 UTC
(2 hours ago)
Oct-18 @ 09:00 UTC
(3 hours ago)
Oct-19 @ 06:00 UTC
(in 18 hours)
Expired Click to View Oct-18 @ 09:00 to Oct-18 @ 10:00
TAF AMD LOWK 180957Z 1809/1906 VRB02KT 9999 SCT007 BKN010 TX17/1814Z TN09/1904Z
Wind Visibility Clouds
Variable at 2 knots 10,000+ meters
  • Scattered at 700' AGL
  • Broken at 1,000' AGL
Becoming Oct-18 @ 10:00 to Oct-19 @ 06:00
BECMG 1810/1811 FEW050 SCT080
Wind Visibility Clouds
Variable at 2 knots 10,000+ meters
  • Few at 5,000' AGL
  • Scattered at 8,000' AGL
Temporary Oct-18 @ 21:00 to Oct-19 @ 06:00
TEMPO 1821/1906 1200 BCFG
Visibility Conditions
1,207 meters
  • Patches of
  • Fog
Temporary Oct-18 @ 22:00 to Oct-19 @ 06:00
TEMPO 1822/1906 0500 BCFG BKN003
Visibility Clouds Conditions
499 meters
  • Broken at 300' AGL
  • Patches of
  • Fog
TAF AMD LOWK 180957Z 1809/1906 VRB02KT 9999 SCT007 BKN010 TX17/1814Z TN09/1904Z BECMG 1810/1811 FEW050 SCT080 TEMPO 1821/1906 1200 BCFG TEMPO 1822/1906 0500 BCFG BKN003
Issued Oct-18 @ 09:57 UTC
(2 hours ago)
Valid From Oct-18 @ 09:00 UTC
(3 hours ago)
Valid To Oct-19 @ 06:00 UTC
(in 18 hours)
Oct-18 @ 09:00 - Oct-18 @ 10:00
Wind Visibility
Variable at 2 knots 10,000+ meters
Clouds
  • Scattered at 700' AGL
  • Broken at 1,000' AGL
Becoming Oct-18 @ 10:00 - Oct-19 @ 06:00
Wind Visibility
Variable at 2 knots 10,000+ meters
Clouds
  • Few at 5,000' AGL
  • Scattered at 8,000' AGL
Temporary Oct-18 @ 21:00 - Oct-19 @ 06:00
Conditions
  • Patches of
  • Fog
Temporary Oct-18 @ 22:00 - Oct-19 @ 06:00
Clouds
  • Broken at 300' AGL
Conditions
  • Patches of
  • Fog